createdAt,value
2023-03-18T00:00:41.880Z,99.35
2023-03-18T00:03:12.175Z,99.33
2023-03-18T00:05:42.373Z,99.29
2023-03-18T00:08:12.537Z,99.34
2023-03-18T00:10:42.314Z,99.28
2023-03-18T00:13:14.863Z,99.14
2023-03-18T00:15:44.713Z,99.06
2023-03-18T00:18:19.987Z,99.02
2023-03-18T00:20:50.548Z,98.89
2023-03-18T00:23:21.311Z,99.02
2023-03-18T00:25:51.619Z,98.94
2023-03-18T00:28:24.171Z,98.83
2023-03-18T00:30:54.767Z,98.83
2023-03-18T00:33:26.912Z,98.73
2023-03-18T00:35:57.096Z,98.71
2023-03-18T00:38:26.847Z,98.79
2023-03-18T00:41:01.696Z,98.71
2023-03-18T00:43:46.024Z,98.71
2023-03-18T00:46:18.055Z,98.64
2023-03-18T00:48:48.712Z,98.58
2023-03-18T00:51:19.250Z,98.70
2023-03-18T00:53:51.981Z,98.72
2023-03-18T00:56:24.127Z,98.71
2023-03-18T00:59:03.108Z,98.84
2023-03-18T01:01:33.568Z,98.82
2023-03-18T01:04:04.558Z,98.81
2023-03-18T01:06:37.612Z,98.91
2023-03-18T01:09:11.358Z,98.89
2023-03-18T01:11:41.143Z,98.89
2023-03-18T01:14:13.522Z,98.93
2023-03-18T01:16:43.453Z,98.93
2023-03-18T01:19:13.762Z,98.86
2023-03-18T01:21:43.629Z,99.02
2023-03-18T01:24:13.465Z,98.96
2023-03-18T01:26:43.990Z,98.92
2023-03-18T01:29:16.520Z,98.92
2023-03-18T01:31:47.262Z,98.96
2023-03-18T01:34:17.613Z,98.87
2023-03-18T01:36:48.175Z,99.02
2023-03-18T01:39:18.383Z,99.02
2023-03-18T01:41:48.984Z,98.95
2023-03-18T01:44:24.867Z,98.84
2023-03-18T01:46:56.950Z,99.03
2023-03-18T01:49:29.288Z,99.02
2023-03-18T01:52:03.051Z,99.02
2023-03-18T01:54:37.901Z,99.15
2023-03-18T01:57:07.964Z,98.97
2023-03-18T01:59:44.592Z,99.04
2023-03-18T02:02:17.110Z,99.06
2023-03-18T02:04:50.513Z,99.05
2023-03-18T02:07:23.447Z,99.03
2023-03-18T02:09:54.831Z,99.12
2023-03-18T02:12:27.030Z,99.25
2023-03-18T02:15:00.896Z,99.28
2023-03-18T02:17:38.516Z,99.34
2023-03-18T02:20:18.858Z,99.32
2023-03-18T02:22:52.556Z,99.36
2023-03-18T02:25:34.806Z,99.65
2023-03-18T02:28:11.324Z,99.60
2023-03-18T02:30:45.244Z,99.67
2023-03-18T02:33:17.468Z,99.79
2023-03-18T02:35:49.283Z,99.87
2023-03-18T02:38:19.650Z,99.91
2023-03-18T02:40:49.398Z,100.00
2023-03-18T02:43:25.980Z,100.00
2023-03-18T02:46:28.907Z,100.00
2023-03-18T02:49:00.091Z,100.00
2023-03-18T02:51:31.142Z,100.00
2023-03-18T02:54:07.632Z,100.00
2023-03-18T02:56:38.010Z,100.00
2023-03-18T02:59:10.423Z,100.00
2023-03-18T03:01:41.865Z,100.00
2023-03-18T03:04:13.920Z,100.00
2023-03-18T03:06:44.731Z,100.00
2023-03-18T03:09:17.330Z,100.00
2023-03-18T03:11:48.878Z,100.00
2023-03-18T03:14:21.810Z,100.00
2023-03-18T03:16:52.059Z,100.00
2023-03-18T03:19:21.826Z,100.00
2023-03-18T03:21:54.462Z,100.00
2023-03-18T03:24:27.489Z,100.00
2023-03-18T03:27:02.942Z,100.00
2023-03-18T03:29:35.788Z,100.00
2023-03-18T03:32:05.890Z,100.00
2023-03-18T03:34:35.751Z,100.00
2023-03-18T03:37:05.967Z,100.00
2023-03-18T03:39:35.786Z,100.00
2023-03-18T03:42:05.572Z,100.00
2023-03-18T03:44:37.950Z,100.00
2023-03-18T03:47:08.591Z,100.00
2023-03-18T03:49:39.155Z,100.00
2023-03-18T03:52:09.401Z,100.00
2023-03-18T03:54:41.641Z,100.00
2023-03-18T03:57:11.961Z,100.00
2023-03-18T03:59:44.344Z,100.00
2023-03-18T04:02:14.524Z,100.00
2023-03-18T04:04:45.363Z,100.00
2023-03-18T04:07:15.513Z,100.00
2023-03-18T04:09:45.715Z,100.00
2023-03-18T04:12:18.384Z,100.00
2023-03-18T04:14:51.835Z,100.00
2023-03-18T04:17:21.699Z,100.00
2023-03-18T04:19:51.599Z,100.00
2023-03-18T04:22:21.664Z,100.00
2023-03-18T04:24:51.432Z,100.00
2023-03-18T04:27:22.726Z,100.00
2023-03-18T04:29:55.118Z,100.00
2023-03-18T04:32:24.913Z,100.00
2023-03-18T04:34:55.027Z,100.00
2023-03-18T04:37:24.786Z,100.00
2023-03-18T04:39:54.630Z,100.00
2023-03-18T04:42:24.407Z,100.00
2023-03-18T04:44:56.752Z,100.00
2023-03-18T04:47:26.535Z,100.00
2023-03-18T04:49:56.297Z,100.00
2023-03-18T04:52:26.048Z,100.00
2023-03-18T04:54:56.768Z,100.00
2023-03-18T04:57:26.767Z,100.00
2023-03-18T05:00:00.166Z,100.00
2023-03-18T05:02:30.126Z,100.00
2023-03-18T05:05:01.315Z,100.00
2023-03-18T05:07:32.017Z,100.00
2023-03-18T05:10:01.834Z,100.00
2023-03-18T05:12:31.645Z,100.00
2023-03-18T05:15:03.995Z,100.00
2023-03-18T05:17:33.757Z,100.00
2023-03-18T05:20:04.544Z,100.00
2023-03-18T05:22:34.409Z,100.00
2023-03-18T05:25:04.582Z,100.00
2023-03-18T05:27:34.447Z,100.00
2023-03-18T05:30:07.844Z,100.00
2023-03-18T05:32:38.139Z,100.00
2023-03-18T05:35:09.325Z,100.00
2023-03-18T05:37:39.745Z,100.00
2023-03-18T05:40:15.201Z,100.00
2023-03-18T05:42:55.765Z,100.00
2023-03-18T05:45:29.149Z,100.00
2023-03-18T05:47:58.923Z,100.00
2023-03-18T05:50:33.314Z,100.00
2023-03-18T05:53:04.475Z,100.00
2023-03-18T05:55:35.442Z,100.00
2023-03-18T05:58:06.048Z,100.00
2023-03-18T06:00:38.745Z,100.00
2023-03-18T06:03:09.159Z,100.00
2023-03-18T06:05:39.094Z,100.00
2023-03-18T06:08:08.866Z,100.00
2023-03-18T06:10:38.952Z,100.00
2023-03-18T06:13:09.628Z,100.00
2023-03-18T06:15:41.992Z,100.00
2023-03-18T06:18:11.749Z,100.00
2023-03-18T06:20:41.921Z,100.00
2023-03-18T06:23:11.659Z,100.00
2023-03-18T06:25:41.411Z,100.00
2023-03-18T06:28:11.146Z,100.00
2023-03-18T06:30:43.882Z,100.00
2023-03-18T06:33:15.341Z,100.00
2023-03-18T06:35:45.445Z,100.00
2023-03-18T06:38:21.886Z,100.00
2023-03-18T06:40:51.706Z,100.00
2023-03-18T06:43:21.546Z,100.00
2023-03-18T06:45:53.980Z,100.00
2023-03-18T06:48:23.873Z,100.00
2023-03-18T06:50:54.548Z,100.00
2023-03-18T06:53:25.431Z,100.00
2023-03-18T06:55:57.597Z,100.00
2023-03-18T06:58:27.528Z,100.00
2023-03-18T07:01:01.944Z,100.00
2023-03-18T07:03:32.910Z,100.00
2023-03-18T07:06:02.830Z,100.00
2023-03-18T07:08:32.625Z,100.00
2023-03-18T07:11:03.428Z,100.00
2023-03-18T07:13:34.718Z,100.00
2023-03-18T07:16:08.908Z,100.00
2023-03-18T07:18:38.791Z,100.00
2023-03-18T07:21:09.723Z,100.00
2023-03-18T07:23:39.481Z,100.00
2023-03-18T07:26:09.795Z,100.00
2023-03-18T07:28:39.561Z,100.00
2023-03-18T07:31:11.988Z,100.00
2023-03-18T07:33:41.808Z,100.00
2023-03-18T07:36:12.052Z,100.00
2023-03-18T07:38:42.296Z,100.00
2023-03-18T07:41:12.722Z,100.00
2023-03-18T07:43:43.720Z,100.00
2023-03-18T07:46:16.076Z,100.00
2023-03-18T07:48:46.715Z,100.00
2023-03-18T07:51:17.489Z,100.00
2023-03-18T07:53:47.759Z,100.00
2023-03-18T07:56:18.140Z,100.00
2023-03-18T07:58:52.092Z,100.00
2023-03-18T08:01:25.787Z,100.00
2023-03-18T08:03:55.618Z,100.00
2023-03-18T08:06:26.459Z,100.00
2023-03-18T08:08:56.304Z,100.00
2023-03-18T08:11:26.172Z,100.00
2023-03-18T08:13:56.127Z,100.00
2023-03-18T08:16:28.665Z,100.00
2023-03-18T08:18:58.921Z,100.00
2023-03-18T08:21:29.931Z,100.00
2023-03-18T08:23:59.682Z,100.00
2023-03-18T08:26:29.633Z,100.00
2023-03-18T08:28:59.667Z,100.00
2023-03-18T08:31:32.075Z,100.00
2023-03-18T08:34:02.555Z,100.00
2023-03-18T08:36:32.370Z,100.00
2023-03-18T08:39:02.186Z,100.00
2023-03-18T08:41:32.483Z,100.00
2023-03-18T08:44:02.312Z,100.00
2023-03-18T08:46:34.757Z,100.00
2023-03-18T08:49:04.941Z,100.00
2023-03-18T08:51:35.224Z,100.00
2023-03-18T08:54:05.031Z,100.00
2023-03-18T08:56:34.888Z,100.00
2023-03-18T08:59:07.784Z,100.00
2023-03-18T09:01:40.537Z,100.00
2023-03-18T09:04:10.377Z,100.00
2023-03-18T09:06:40.188Z,100.00
2023-03-18T09:09:11.785Z,100.00
2023-03-18T09:11:41.965Z,100.00
2023-03-18T09:14:11.705Z,100.00
2023-03-18T09:16:44.068Z,100.00
2023-03-18T09:19:13.908Z,100.00
2023-03-18T09:21:44.684Z,100.00
2023-03-18T09:24:14.445Z,100.00
2023-03-18T09:26:44.254Z,100.00
2023-03-18T09:29:14.066Z,100.00
2023-03-18T09:31:49.369Z,100.00
2023-03-18T09:34:19.482Z,100.00
2023-03-18T09:36:51.313Z,100.00
2023-03-18T09:39:21.360Z,100.00
2023-03-18T09:42:07.258Z,100.00
2023-03-18T09:44:39.141Z,100.00
2023-03-18T09:47:33.569Z,100.00
2023-03-18T09:50:18.558Z,100.00
2023-03-18T09:52:51.636Z,100.00
2023-03-18T09:55:27.424Z,100.00
2023-03-18T09:58:01.560Z,100.00
2023-03-18T10:00:34.246Z,100.00
2023-03-18T10:03:15.876Z,100.00
2023-03-18T10:05:53.336Z,100.00
2023-03-18T10:08:35.220Z,100.00
2023-03-18T10:11:10.957Z,100.00
2023-03-18T10:13:45.870Z,100.00
2023-03-18T10:16:23.712Z,100.00
2023-03-18T10:18:57.232Z,100.00
2023-03-18T10:21:37.794Z,100.00
2023-03-18T10:24:21.316Z,100.00
2023-03-18T10:26:56.057Z,100.00
2023-03-18T10:29:37.853Z,100.00
2023-03-18T10:32:15.286Z,100.00
2023-03-18T10:34:59.900Z,100.00
2023-03-18T10:37:40.831Z,100.00
2023-03-18T10:40:16.689Z,100.00
2023-03-18T10:42:48.040Z,100.00
2023-03-18T10:45:27.468Z,100.00
2023-03-18T10:48:05.975Z,100.00
2023-03-18T10:50:40.389Z,100.00
2023-03-18T10:53:19.265Z,100.00
2023-03-18T10:55:57.993Z,100.00
2023-03-18T10:58:30.982Z,100.00
2023-03-18T11:01:01.624Z,100.00
2023-03-18T11:03:36.017Z,100.00
2023-03-18T11:06:15.494Z,100.00
2023-03-18T11:08:49.271Z,100.00
2023-03-18T11:11:25.335Z,100.00
2023-03-18T11:13:57.325Z,100.00
2023-03-18T11:16:33.179Z,100.00
2023-03-18T11:19:09.359Z,100.00
2023-03-18T11:21:41.902Z,100.00
2023-03-18T11:24:36.411Z,100.00
2023-03-18T11:27:06.971Z,100.00
2023-03-18T11:29:38.362Z,100.00
2023-03-18T11:32:09.865Z,100.00
2023-03-18T11:34:39.663Z,100.00
2023-03-18T11:37:14.435Z,100.00
2023-03-18T11:39:44.699Z,100.00
2023-03-18T11:42:22.256Z,100.00
2023-03-18T11:44:57.657Z,100.00
2023-03-18T11:47:31.657Z,100.00
2023-03-18T11:50:02.224Z,100.00
2023-03-18T11:52:44.051Z,100.00
2023-03-18T11:55:28.962Z,100.00
2023-03-18T11:58:33.221Z,100.00
2023-03-18T12:01:10.389Z,100.00
2023-03-18T12:04:08.580Z,100.00
2023-03-18T12:06:47.548Z,100.00
2023-03-18T12:09:30.452Z,100.00
2023-03-18T12:12:09.448Z,100.00
2023-03-18T12:14:46.111Z,100.00
2023-03-18T12:17:27.624Z,99.81
2023-03-18T12:20:15.830Z,99.33
2023-03-18T12:23:04.537Z,99.01
2023-03-18T12:26:01.081Z,98.47
2023-03-18T12:28:50.903Z,97.91
2023-03-18T12:31:51.625Z,97.32
2023-03-18T12:34:34.370Z,96.99
2023-03-18T12:37:19.321Z,96.33
2023-03-18T12:40:24.847Z,96.02
2023-03-18T12:43:27.345Z,95.60
2023-03-18T12:46:04.739Z,95.20
2023-03-18T12:48:44.447Z,94.89
2023-03-18T12:51:18.353Z,94.49
2023-03-18T12:53:53.005Z,94.25
2023-03-18T12:56:26.636Z,94.09
2023-03-18T12:59:05.446Z,93.81
2023-03-18T13:01:45.465Z,93.50
2023-03-18T13:04:22.345Z,93.27
2023-03-18T13:07:02.202Z,92.93
2023-03-18T13:09:40.129Z,92.79
2023-03-18T13:12:14.657Z,92.71
2023-03-18T13:15:02.029Z,92.66
2023-03-18T13:17:38.841Z,92.54
2023-03-18T13:20:15.128Z,92.54
2023-03-18T13:23:16.126Z,92.35
2023-03-18T13:25:59.063Z,92.16
2023-03-18T13:28:51.373Z,92.15
2023-03-18T13:31:34.631Z,92.14
2023-03-18T13:34:26.782Z,92.05
2023-03-18T13:37:24.746Z,91.88
2023-03-18T13:40:20.490Z,91.97
2023-03-18T13:42:52.544Z,91.70
2023-03-18T13:45:29.486Z,91.73
2023-03-18T13:48:01.217Z,91.42
2023-03-18T13:50:39.853Z,91.47
2023-03-18T13:53:30.841Z,91.48
2023-03-18T13:56:07.171Z,91.25
2023-03-18T13:58:38.890Z,90.95
2023-03-18T14:01:33.629Z,90.87
2023-03-18T14:04:19.396Z,90.83
2023-03-18T14:06:55.957Z,90.73
2023-03-18T14:09:37.360Z,90.64
2023-03-18T14:12:24.967Z,90.79
2023-03-18T14:15:01.540Z,90.60
2023-03-18T14:17:41.563Z,90.39
2023-03-18T14:20:28.820Z,90.39
2023-03-18T14:23:28.753Z,90.31
2023-03-18T14:26:07.979Z,90.25
2023-03-18T14:28:56.368Z,90.17
2023-03-18T14:31:35.335Z,90.03
2023-03-18T14:34:27.957Z,89.93
2023-03-18T14:37:23.405Z,89.66
2023-03-18T14:39:57.812Z,89.53
2023-03-18T14:42:35.774Z,89.38
2023-03-18T14:45:15.718Z,89.41
2023-03-18T14:47:48.964Z,89.25
2023-03-18T14:50:27.669Z,89.00
2023-03-18T14:53:01.553Z,88.83
2023-03-18T14:55:37.057Z,88.85
2023-03-18T14:58:10.963Z,88.96
2023-03-18T15:00:40.839Z,88.77
2023-03-18T15:03:16.474Z,88.71
2023-03-18T15:05:47.046Z,88.80
2023-03-18T15:08:19.691Z,88.70
2023-03-18T15:11:19.328Z,88.65
2023-03-18T15:13:49.319Z,88.77
2023-03-18T15:16:22.178Z,88.80
2023-03-18T15:18:56.088Z,88.55
2023-03-18T15:21:29.759Z,88.51
2023-03-18T15:24:03.607Z,88.61
2023-03-18T15:26:40.699Z,88.68
2023-03-18T15:29:28.245Z,88.55
2023-03-18T15:32:10.736Z,88.61
2023-03-18T15:34:44.643Z,88.76
2023-03-18T15:37:29.030Z,88.55
2023-03-18T15:39:59.836Z,88.62
2023-03-18T15:42:33.314Z,88.80
2023-03-18T15:45:05.371Z,88.71
2023-03-18T15:47:35.954Z,88.82
2023-03-18T15:50:28.044Z,88.94
2023-03-18T15:53:20.417Z,89.00
2023-03-18T15:55:52.086Z,89.09
2023-03-18T15:58:29.814Z,89.31
2023-03-18T16:01:00.560Z,89.39
2023-03-18T16:03:32.484Z,89.41
2023-03-18T16:06:02.647Z,89.36
2023-03-18T16:08:33.062Z,89.53
2023-03-18T16:11:06.013Z,89.68
2023-03-18T16:13:40.887Z,89.60
2023-03-18T16:16:18.677Z,89.96
2023-03-18T16:18:49.062Z,89.93
2023-03-18T16:21:18.943Z,90.27
2023-03-18T16:23:49.496Z,90.38
2023-03-18T16:26:20.674Z,90.33
2023-03-18T16:28:53.103Z,90.30
2023-03-18T16:31:22.985Z,90.60
2023-03-18T16:33:53.847Z,90.62
2023-03-18T16:36:32.437Z,90.61
2023-03-18T16:39:02.200Z,90.79
2023-03-18T16:41:31.948Z,90.75
2023-03-18T16:44:06.618Z,90.81
2023-03-18T16:46:36.577Z,90.76
2023-03-18T16:49:06.612Z,90.91
2023-03-18T16:51:36.370Z,90.89
2023-03-18T16:54:19.862Z,90.93
2023-03-18T16:56:52.447Z,91.10
2023-03-18T16:59:27.974Z,90.96
2023-03-18T17:01:58.767Z,91.25
2023-03-18T17:04:31.244Z,91.25
2023-03-18T17:07:04.311Z,91.14
2023-03-18T17:09:34.935Z,91.29
2023-03-18T17:12:07.759Z,91.40
2023-03-18T17:14:43.213Z,91.43
2023-03-18T17:17:22.613Z,91.38
2023-03-18T17:19:52.360Z,91.46
2023-03-18T17:22:24.986Z,91.50
2023-03-18T17:24:54.783Z,91.44
2023-03-18T17:27:26.492Z,91.54
2023-03-18T17:29:58.900Z,91.60
2023-03-18T17:32:28.736Z,91.62
2023-03-18T17:34:58.525Z,91.55
2023-03-18T17:37:29.255Z,91.51
2023-03-18T17:40:02.059Z,91.58
2023-03-18T17:42:34.810Z,91.75
2023-03-18T17:45:14.630Z,91.48
2023-03-18T17:47:44.500Z,91.71
2023-03-18T17:50:17.415Z,91.60
2023-03-18T17:52:48.753Z,91.76
2023-03-18T17:55:22.645Z,91.71
2023-03-18T17:57:56.839Z,91.81
2023-03-18T18:00:29.891Z,91.85
2023-03-18T18:03:00.652Z,91.85
2023-03-18T18:05:31.311Z,92.03
2023-03-18T18:08:01.275Z,91.94
2023-03-18T18:10:31.497Z,92.03
2023-03-18T18:13:02.839Z,92.25
2023-03-18T18:15:35.621Z,92.43
2023-03-18T18:18:06.405Z,92.32
2023-03-18T18:20:36.788Z,92.53
2023-03-18T18:23:08.177Z,92.59
2023-03-18T18:25:37.953Z,92.71
2023-03-18T18:28:14.631Z,92.64
2023-03-18T18:30:47.127Z,92.73
2023-03-18T18:33:19.423Z,92.65
2023-03-18T18:35:49.188Z,92.66
2023-03-18T18:38:19.003Z,92.78
2023-03-18T18:40:49.722Z,92.74
2023-03-18T18:43:19.596Z,92.95
2023-03-18T18:45:54.451Z,92.96
2023-03-18T18:48:30.187Z,92.94
2023-03-18T18:51:00.409Z,93.17
2023-03-18T18:53:32.258Z,93.12
2023-03-18T18:56:05.789Z,93.09
2023-03-18T18:58:36.671Z,93.26
2023-03-18T19:01:11.566Z,93.31
2023-03-18T19:03:42.086Z,93.34
2023-03-18T19:06:26.717Z,93.44
2023-03-18T19:08:57.795Z,93.50
2023-03-18T19:11:28.486Z,93.52
2023-03-18T19:14:08.443Z,93.60
2023-03-18T19:16:40.799Z,93.71
2023-03-18T19:19:13.989Z,93.76
2023-03-18T19:21:43.883Z,93.68
2023-03-18T19:24:28.494Z,93.94
2023-03-18T19:26:59.617Z,93.93
2023-03-18T19:29:30.039Z,94.07
2023-03-18T19:32:03.069Z,94.20
2023-03-18T19:34:35.439Z,94.40
2023-03-18T19:37:08.012Z,94.44
2023-03-18T19:39:38.244Z,94.54
2023-03-18T19:42:08.062Z,94.59
2023-03-18T19:44:42.800Z,94.72
2023-03-18T19:47:20.570Z,94.88
2023-03-18T19:49:50.709Z,94.82
2023-03-18T19:52:22.701Z,94.84
2023-03-18T19:54:53.552Z,94.97
2023-03-18T19:57:27.542Z,95.05
2023-03-18T20:00:00.910Z,95.02
2023-03-18T20:02:34.960Z,95.03
2023-03-18T20:05:17.191Z,95.01
2023-03-18T20:07:46.941Z,95.07
2023-03-18T20:10:17.171Z,95.01
2023-03-18T20:12:48.847Z,95.06
2023-03-18T20:15:20.588Z,95.06
2023-03-18T20:17:53.875Z,95.13
2023-03-18T20:20:25.526Z,95.05
2023-03-18T20:22:59.394Z,95.05
2023-03-18T20:25:36.098Z,94.98
2023-03-18T20:28:06.201Z,95.03
2023-03-18T20:30:37.848Z,95.06
2023-03-18T20:33:10.899Z,95.06
2023-03-18T20:35:43.112Z,95.11
2023-03-18T20:38:18.501Z,95.31
2023-03-18T20:40:49.677Z,95.62
2023-03-18T20:43:20.820Z,95.67
2023-03-18T20:45:51.595Z,95.79
2023-03-18T20:48:24.520Z,95.99
2023-03-18T20:50:55.437Z,96.15
2023-03-18T20:53:28.707Z,96.25
2023-03-18T20:55:58.883Z,96.25
2023-03-18T20:58:32.871Z,96.33
2023-03-18T21:01:03.837Z,96.67
2023-03-18T21:03:37.988Z,96.69
2023-03-18T21:06:10.015Z,96.70
2023-03-18T21:08:40.016Z,96.75
2023-03-18T21:11:19.627Z,96.71
2023-03-18T21:13:49.366Z,96.85
2023-03-18T21:16:21.224Z,96.88
2023-03-18T21:18:53.705Z,96.98
2023-03-18T21:21:26.800Z,97.03
2023-03-18T21:23:57.012Z,96.97
2023-03-18T21:26:28.551Z,97.07
2023-03-18T21:28:58.350Z,97.13
2023-03-18T21:31:31.405Z,97.20
2023-03-18T21:34:04.194Z,97.31
2023-03-18T21:36:34.085Z,97.30
2023-03-18T21:39:03.847Z,97.33
2023-03-18T21:41:34.099Z,97.38
2023-03-18T21:44:03.941Z,97.56
2023-03-18T21:46:33.730Z,97.50
2023-03-18T21:49:06.216Z,97.66
2023-03-18T21:51:39.508Z,97.81
2023-03-18T21:54:17.482Z,97.94
2023-03-18T21:56:47.258Z,98.00
2023-03-18T21:59:20.155Z,98.17
2023-03-18T22:01:49.930Z,98.32
2023-03-18T22:04:22.459Z,98.50
2023-03-18T22:06:52.583Z,98.61
2023-03-18T22:09:24.281Z,98.67
2023-03-18T22:11:54.060Z,98.72
2023-03-18T22:14:23.832Z,98.94
2023-03-18T22:16:53.550Z,99.23
2023-03-18T22:19:25.932Z,99.28
2023-03-18T22:21:55.708Z,99.40
2023-03-18T22:24:25.477Z,99.53
2023-03-18T22:26:55.205Z,99.82
2023-03-18T22:29:25.210Z,99.86
2023-03-18T22:31:54.996Z,100.00
2023-03-18T22:34:28.348Z,100.00
2023-03-18T22:36:58.092Z,100.00
2023-03-18T22:39:28.238Z,100.00
2023-03-18T22:41:58.022Z,100.00
2023-03-18T22:44:28.209Z,100.00
2023-03-18T22:46:58.001Z,100.00
2023-03-18T22:49:30.422Z,100.00
2023-03-18T22:52:00.272Z,100.00
2023-03-18T22:54:33.786Z,100.00
2023-03-18T22:57:04.339Z,100.00
2023-03-18T22:59:34.116Z,100.00
2023-03-18T23:02:03.998Z,100.00
2023-03-18T23:04:36.476Z,100.00
2023-03-18T23:07:06.445Z,100.00
2023-03-18T23:09:44.238Z,100.00
2023-03-18T23:12:20.600Z,100.00
2023-03-18T23:14:51.117Z,100.00
2023-03-18T23:17:22.474Z,100.00
2023-03-18T23:19:55.544Z,100.00
2023-03-18T23:22:28.650Z,100.00
2023-03-18T23:24:59.266Z,100.00
2023-03-18T23:27:30.123Z,100.00
2023-03-18T23:29:59.871Z,100.00
2023-03-18T23:32:31.160Z,100.00
2023-03-18T23:35:03.732Z,100.00
2023-03-18T23:37:33.476Z,100.00
2023-03-18T23:40:03.446Z,100.00
2023-03-18T23:42:33.198Z,100.00
2023-03-18T23:45:04.173Z,100.00
2023-03-18T23:47:33.946Z,100.00
2023-03-18T23:50:06.810Z,100.00
2023-03-18T23:52:37.016Z,100.00
2023-03-18T23:55:18.466Z,100.00
2023-03-18T23:57:52.268Z,100.00
